Time;durP1;ratioP1;P1;durP2;ratioP2;P2;SDS_P1;SDS_P2;PMS_P1;PMS_P2;Temp;Humidity;BMP_temperature;BMP_pressure;BME280_temperature;BME280_humidity;BME280_pressure;Samples;Min_cycle;Max_cycle;Signal;HPM_P1;HPM_P2
2022/04/04 00:00:44;;;;;;;6.23;0.77;;;3.70;99.90;;;;;;5022480;28;20121;-85
2022/04/04 00:03:11;;;;;;;0.83;0.77;;;3.70;99.90;;;;;;5021244;28;20056;-83
2022/04/04 00:05:37;;;;;;;2.67;1.90;;;3.80;99.90;;;;;;5022258;28;20645;-86
2022/04/04 00:08:03;;;;;;;0.77;0.77;;;3.80;99.90;;;;;;5019508;28;20081;-86
2022/04/04 00:10:28;;;;;;;1.73;1.10;;;3.80;99.90;;;;;;5021083;28;20497;-86
2022/04/04 00:12:54;;;;;;;3.70;1.17;;;3.80;99.90;;;;;;5022244;28;20091;-86
2022/04/04 00:15:20;;;;;;;3.60;1.13;;;3.80;99.90;;;;;;5021724;28;20602;-86
2022/04/04 00:17:46;;;;;;;1.03;0.73;;;3.80;99.90;;;;;;5022194;28;20038;-86
2022/04/04 00:20:12;;;;;;;2.00;1.13;;;3.80;99.90;;;;;;5021861;28;20052;-85
2022/04/04 00:22:37;;;;;;;1.63;1.53;;;3.90;99.90;;;;;;5021080;28;20086;-85
2022/04/04 00:25:04;;;;;;;1.23;1.23;;;3.90;99.90;;;;;;5021622;28;20046;-86
2022/04/04 00:27:30;;;;;;;1.30;1.07;;;3.90;99.90;;;;;;5020513;28;20056;-85
2022/04/04 00:29:55;;;;;;;2.73;2.30;;;4.00;99.90;;;;;;5022467;28;20046;-86
2022/04/04 00:32:21;;;;;;;1.07;1.03;;;4.00;99.90;;;;;;5019916;28;20037;-86
2022/04/04 00:34:46;;;;;;;1.20;1.20;;;4.00;99.90;;;;;;5021986;28;20102;-86
2022/04/04 00:37:12;;;;;;;1.37;1.27;;;4.10;99.90;;;;;;5019372;28;20558;-85
2022/04/04 00:39:38;;;;;;;1.00;1.00;;;4.10;99.90;;;;;;5021294;28;20624;-85
2022/04/04 00:42:04;;;;;;;2.40;0.93;;;4.10;99.90;;;;;;5021205;28;20046;-85
2022/04/04 00:44:29;;;;;;;6.80;2.27;;;4.10;99.90;;;;;;5020938;28;20033;-85
2022/04/04 00:46:55;;;;;;;4.53;2.00;;;4.20;99.90;;;;;;5021623;28;20530;-86
2022/04/04 00:49:21;;;;;;;3.17;2.87;;;4.20;99.90;;;;;;5019928;28;20041;-86
2022/04/04 00:51:47;;;;;;;2.63;2.40;;;4.20;99.90;;;;;;5021654;28;20038;-86
2022/04/04 00:54:13;;;;;;;3.00;2.70;;;4.20;99.90;;;;;;5020651;28;20073;-86
2022/04/04 00:56:38;;;;;;;3.17;2.97;;;4.20;99.90;;;;;;5021851;28;20436;-77
2022/04/04 00:59:12;;;;;;;2.63;2.40;;;4.30;99.90;;;;;;5022010;28;20247;-85
2022/04/04 01:01:37;;;;;;;5.33;3.17;;;4.30;99.90;;;;;;5021047;28;20523;-86
2022/04/04 01:04:03;;;;;;;3.33;3.03;;;4.30;99.90;;;;;;5020270;28;20041;-86
2022/04/04 01:06:29;;;;;;;6.53;5.00;;;4.30;99.90;;;;;;5019978;28;20080;-86
2022/04/04 01:08:54;;;;;;;4.17;3.30;;;4.40;99.90;;;;;;5019679;28;20052;-86
2022/04/04 01:11:20;;;;;;;2.40;2.23;;;4.30;99.90;;;;;;5023607;22;20487;-86
2022/04/04 01:13:47;;;;;;;3.83;3.37;;;4.40;99.90;;;;;;5000702;28;20058;-84
2022/04/04 01:16:14;;;;;;;9.67;3.57;;;4.40;99.90;;;;;;5000150;28;20046;-86
2022/04/04 01:18:40;;;;;;;3.00;2.83;;;4.40;99.90;;;;;;5002050;28;20480;-85
2022/04/04 01:21:06;;;;;;;7.83;5.20;;;4.40;99.90;;;;;;5001956;28;20042;-86
2022/04/04 01:23:39;;;;;;;4.67;3.53;;;4.50;99.90;;;;;;5001317;28;20451;-80
2022/04/04 01:26:04;;;;;;;3.17;2.93;;;4.50;99.90;;;;;;5001260;28;20061;-86
2022/04/04 01:28:30;;;;;;;4.17;3.80;;;4.50;99.90;;;;;;5001602;28;20121;-86
2022/04/04 01:30:55;;;;;;;4.40;4.07;;;4.50;99.90;;;;;;5001621;28;20522;-86
2022/04/04 01:33:21;;;;;;;4.37;3.00;;;4.50;99.90;;;;;;5000432;28;20411;-86
2022/04/04 01:35:47;;;;;;;7.20;4.80;;;4.50;99.90;;;;;;5001883;28;20074;-86
2022/04/04 01:38:12;;;;;;;11.17;5.33;;;4.60;99.90;;;;;;5001847;28;20057;-86
2022/04/04 01:40:38;;;;;;;7.43;4.93;;;4.60;99.90;;;;;;5001176;28;20377;-86
2022/04/04 01:43:04;;;;;;;4.13;3.87;;;4.70;99.90;;;;;;5001866;28;20070;-86
2022/04/04 01:48:14;;;;;;;3.90;3.60;;;4.70;99.90;;;;;;5001962;28;20092;-86
2022/04/04 01:50:39;;;;;;;4.53;4.07;;;4.70;99.90;;;;;;5005358;28;20082;-86
2022/04/04 01:55:50;;;;;;;4.33;3.93;;;4.70;99.90;;;;;;4986724;28;20056;-87
2022/04/04 01:58:16;;;;;;;4.03;3.73;;;4.80;99.90;;;;;;5004771;28;20041;-86
2022/04/04 02:00:42;;;;;;;2.93;2.73;;;4.80;99.90;;;;;;5003868;28;20046;-87
2022/04/04 02:03:07;;;;;;;7.13;4.20;;;4.80;99.90;;;;;;5005425;28;20152;-86
2022/04/04 02:05:33;;;;;;;5.27;4.87;;;4.80;99.90;;;;;;5003787;28;20068;-87
2022/04/04 02:07:58;;;;;;;6.73;4.07;;;4.90;99.90;;;;;;5004753;28;20076;-87
2022/04/04 02:10:24;;;;;;;4.43;3.67;;;4.90;99.90;;;;;;5003821;28;20140;-86
2022/04/04 02:12:50;;;;;;;4.63;3.30;;;4.90;99.90;;;;;;5004427;28;20060;-86
2022/04/04 02:15:15;;;;;;;6.80;4.20;;;4.90;99.90;;;;;;5004430;28;20042;-86
2022/04/04 02:17:41;;;;;;;4.87;4.37;;;4.90;99.90;;;;;;5005166;28;20042;-86
2022/04/04 02:20:08;;;;;;;5.23;4.73;;;4.90;99.90;;;;;;5005188;28;20509;-86
2022/04/04 02:22:34;;;;;;;6.07;4.23;;;4.90;99.90;;;;;;5005111;28;20045;-86
2022/04/04 02:25:00;;;;;;;6.80;4.33;;;4.90;99.90;;;;;;5003499;28;20034;-87
2022/04/04 02:27:26;;;;;;;5.30;4.77;;;4.90;99.90;;;;;;5004525;28;20073;-86
2022/04/04 02:29:52;;;;;;;9.50;4.97;;;4.90;99.90;;;;;;5004533;28;20112;-86
2022/04/04 02:32:19;;;;;;;4.57;4.17;;;5.00;99.90;;;;;;5002397;28;20050;-86
2022/04/04 02:34:45;;;;;;;3.30;2.97;;;5.00;99.90;;;;;;5004651;28;20048;-86
2022/04/04 02:37:12;;;;;;;5.03;4.63;;;5.00;99.90;;;;;;5004039;28;20524;-86
2022/04/04 02:39:37;;;;;;;4.67;3.60;;;5.00;99.90;;;;;;5004025;28;20412;-84
2022/04/04 02:42:03;;;;;;;4.97;4.57;;;5.00;99.90;;;;;;5004030;28;20046;-86
2022/04/04 02:44:29;;;;;;;5.63;5.17;;;5.00;99.90;;;;;;5003341;28;20049;-86
2022/04/04 02:46:54;;;;;;;5.23;4.73;;;5.00;99.90;;;;;;5002699;28;20129;-86
2022/04/04 02:49:20;;;;;;;3.53;3.23;;;5.10;99.90;;;;;;5004102;28;20508;-87
2022/04/04 02:51:45;;;;;;;6.20;4.53;;;5.10;99.90;;;;;;5002927;28;20128;-86
2022/04/04 02:54:11;;;;;;;6.27;3.93;;;5.10;99.90;;;;;;5002343;28;20452;-86
2022/04/04 02:56:41;;;;;;;5.73;4.30;;;5.10;99.90;;;;;;5004590;28;20073;-86
2022/04/04 02:59:08;;;;;;;5.07;4.67;;;5.10;99.90;;;;;;5004422;28;20046;-87
2022/04/04 03:01:34;;;;;;;4.33;4.03;;;5.10;99.90;;;;;;5001862;28;20392;-86
2022/04/04 03:04:00;;;;;;;9.10;5.93;;;5.10;99.90;;;;;;5004002;28;20129;-86
2022/04/04 03:06:27;;;;;;;6.93;5.67;;;5.10;99.90;;;;;;5002571;28;20474;-86
2022/04/04 03:08:53;;;;;;;3.03;2.83;;;5.10;99.90;;;;;;5002781;28;20042;-86
2022/04/04 03:11:18;;;;;;;6.50;4.47;;;5.10;99.90;;;;;;5003467;28;20511;-86
2022/04/04 03:13:44;;;;;;;5.73;5.13;;;5.20;99.90;;;;;;5003090;28;20603;-86
2022/04/04 03:16:10;;;;;;;6.17;4.87;;;5.20;99.90;;;;;;5003713;28;20113;-87
2022/04/04 03:18:36;;;;;;;6.47;4.17;;;5.20;99.90;;;;;;5003813;28;20602;-86
2022/04/04 03:21:03;;;;;;;6.67;4.60;;;5.20;99.90;;;;;;5003841;28;20049;-86
2022/04/04 03:23:29;;;;;;;4.67;2.97;;;5.20;99.90;;;;;;5002344;28;20088;-86
2022/04/04 03:25:55;;;;;;;2.27;2.13;;;5.30;99.90;;;;;;4985636;28;20050;-85
2022/04/04 03:28:21;;;;;;;9.10;2.50;;;5.30;99.90;;;;;;4985753;28;20046;-84
2022/04/04 03:30:48;;;;;;;6.57;3.73;;;5.40;99.90;;;;;;5003652;28;20034;-86
2022/04/04 03:33:14;;;;;;;5.20;3.80;;;5.40;99.90;;;;;;4985640;28;20046;-85
2022/04/04 03:35:40;;;;;;;5.90;3.93;;;5.40;99.90;;;;;;5003296;28;20064;-85
2022/04/04 03:38:07;;;;;;;7.53;3.57;;;5.40;99.90;;;;;;5003905;28;20488;-84
2022/04/04 03:40:33;;;;;;;3.60;3.00;;;5.40;99.90;;;;;;5001246;28;20046;-85
2022/04/04 03:43:00;;;;;;;4.93;3.63;;;5.40;99.90;;;;;;5003176;28;20417;-84
2022/04/04 03:45:26;;;;;;;10.30;4.53;;;5.40;99.90;;;;;;4989679;28;20123;-84
2022/04/04 03:47:52;;;;;;;4.03;2.73;;;5.40;99.90;;;;;;5002258;28;20050;-84
2022/04/04 03:50:20;;;;;;;2.23;2.13;;;5.40;99.90;;;;;;5001521;28;20511;-83
2022/04/04 03:52:53;;;;;;;2.40;2.20;;;5.30;99.90;;;;;;5003062;28;20048;-83
2022/04/04 03:55:28;;;;;;;4.88;2.88;;;5.30;99.90;;;;;;5001872;28;20511;-83
2022/04/04 03:57:54;;;;;;;6.30;3.60;;;5.30;99.90;;;;;;5002818;28;20046;-83
2022/04/04 04:00:22;;;;;;;6.75;3.47;;;5.30;99.90;;;;;;5002665;28;20073;-82
2022/04/04 04:02:47;;;;;;;2.77;2.43;;;5.30;99.90;;;;;;5002717;28;20269;-84
2022/04/04 04:05:13;;;;;;;12.47;2.93;;;5.30;99.90;;;;;;5001651;28;20405;-84
2022/04/04 04:07:40;;;;;;;7.83;5.37;;;5.30;99.90;;;;;;5002560;28;20502;-85
2022/04/04 04:10:06;;;;;;;6.20;5.13;;;5.30;99.90;;;;;;5002439;28;20042;-84
2022/04/04 04:12:31;;;;;;;13.27;4.77;;;5.30;99.90;;;;;;5000291;28;20042;-83
2022/04/04 04:14:57;;;;;;;5.90;4.23;;;5.30;99.90;;;;;;4985277;28;20058;-83
2022/04/04 04:17:24;;;;;;;3.60;3.30;;;5.30;99.90;;;;;;5002383;28;20052;-83
2022/04/04 04:22:34;;;;;;;3.17;2.87;;;5.30;99.90;;;;;;5001438;28;20053;-83
2022/04/04 04:25:01;;;;;;;19.87;3.50;;;5.30;99.90;;;;;;5000228;28;20455;-83
2022/04/04 04:27:27;;;;;;;16.63;3.93;;;5.30;99.90;;;;;;5002271;28;20069;-83
2022/04/04 04:29:52;;;;;;;4.10;3.53;;;5.30;99.90;;;;;;5002237;28;20738;-84
2022/04/04 04:32:19;;;;;;;5.40;3.30;;;5.20;99.90;;;;;;5002563;28;20045;-83
2022/04/04 04:34:46;;;;;;;4.43;4.03;;;5.20;99.90;;;;;;5002055;28;20485;-85
2022/04/04 04:37:13;;;;;;;3.22;3.03;;;5.20;99.90;;;;;;5001265;28;20053;-84
2022/04/04 04:39:39;;;;;;;9.80;3.60;;;5.30;99.90;;;;;;5001354;28;20091;-85
2022/04/04 04:42:05;;;;;;;3.60;3.40;;;5.20;99.90;;;;;;5002444;28;20061;-84
2022/04/04 04:44:31;;;;;;;4.28;3.65;;;5.20;99.90;;;;;;4984160;28;20042;-84
2022/04/04 04:46:56;;;;;;;12.70;3.30;;;5.20;99.90;;;;;;5002344;28;20050;-84
2022/04/04 04:49:22;;;;;;;5.03;3.00;;;5.30;99.90;;;;;;5001863;28;20046;-83
2022/04/04 04:51:48;;;;;;;2.40;2.30;;;5.30;99.90;;;;;;5002334;28;20052;-84
2022/04/04 04:54:14;;;;;;;3.43;3.13;;;5.20;99.90;;;;;;5001082;28;20052;-85
2022/04/04 04:56:39;;;;;;;2.13;1.88;;;5.20;99.90;;;;;;5000537;28;20069;-85
2022/04/04 04:59:05;;;;;;;4.35;1.95;;;5.20;99.90;;;;;;5002841;28;20638;-84
2022/04/04 05:01:30;;;;;;;2.23;2.03;;;5.20;99.90;;;;;;5000238;28;20073;-85
2022/04/04 05:03:56;;;;;;;3.03;1.97;;;5.20;99.90;;;;;;5002020;28;20516;-85
2022/04/04 05:06:21;;;;;;;3.00;2.10;;;5.20;99.90;;;;;;5001973;28;20419;-84
2022/04/04 05:08:47;;;;;;;1.07;1.07;;;5.10;99.90;;;;;;5000723;28;20392;-85
2022/04/04 05:11:12;;;;;;;2.63;1.17;;;5.10;99.90;;;;;;5001455;28;20486;-85
2022/04/04 05:13:38;;;;;;;1.27;1.27;;;5.10;99.90;;;;;;4984704;28;20076;-84
2022/04/04 05:16:09;;;;;;;1.37;1.27;;;5.10;99.90;;;;;;5002201;28;20148;-85
2022/04/04 05:18:35;;;;;;;2.97;2.03;;;5.10;99.90;;;;;;5000411;28;20117;-84
2022/04/04 05:21:01;;;;;;;1.17;1.07;;;5.00;99.90;;;;;;5000960;28;20034;-85
2022/04/04 05:23:27;;;;;;;1.77;1.10;;;5.00;99.90;;;;;;5001660;28;20069;-85
2022/04/04 05:25:52;;;;;;;1.50;0.57;;;5.00;99.90;;;;;;5004567;28;20045;-85
2022/04/04 05:28:18;;;;;;;3.80;1.63;;;4.90;99.90;;;;;;5005250;28;20030;-84
2022/04/04 05:30:43;;;;;;;2.57;0.90;;;4.90;99.90;;;;;;5005425;28;20048;-85
2022/04/04 05:33:09;;;;;;;3.90;1.00;;;4.90;99.90;;;;;;5005020;28;20049;-84
2022/04/04 05:35:35;;;;;;;1.90;0.77;;;4.80;99.90;;;;;;4995116;28;20469;-85
2022/04/04 05:38:01;;;;;;;0.73;0.73;;;4.80;99.90;;;;;;4989834;28;20818;-85
2022/04/04 05:40:27;;;;;;;0.40;0.40;;;4.80;99.90;;;;;;5005027;28;20041;-85
2022/04/04 05:42:54;;;;;;;0.77;0.70;;;4.80;99.90;;;;;;5005011;28;20049;-86
2022/04/04 05:45:20;;;;;;;3.30;0.70;;;4.80;99.90;;;;;;5003359;28;20049;-85
2022/04/04 05:47:45;;;;;;;1.13;1.03;;;4.80;99.90;;;;;;5004094;28;20034;-85
2022/04/04 05:50:11;;;;;;;1.47;1.00;;;4.80;99.90;;;;;;5004252;28;20485;-85
2022/04/04 05:52:37;;;;;;;3.03;1.30;;;4.80;99.90;;;;;;5002513;28;20042;-84
2022/04/04 05:55:05;;;;;;;1.70;1.40;;;4.80;99.90;;;;;;5001777;28;20049;-84
2022/04/04 05:57:34;;;;;;;2.97;1.37;;;4.80;99.90;;;;;;4986735;28;20535;-85
2022/04/04 06:00:00;;;;;;;2.30;1.17;;;4.80;99.90;;;;;;5004044;28;20073;-82
2022/04/04 06:02:27;;;;;;;4.17;1.43;;;4.80;99.90;;;;;;5002805;28;20042;-81
2022/04/04 06:04:52;;;;;;;1.20;1.20;;;4.80;99.90;;;;;;5003992;28;20463;-84
2022/04/04 06:07:18;;;;;;;3.13;0.85;;;4.80;99.90;;;;;;4986572;28;20053;-84
2022/04/04 06:09:44;;;;;;;5.23;2.10;;;4.90;99.90;;;;;;4985609;28;20408;-85
2022/04/04 06:12:10;;;;;;;1.53;1.40;;;4.90;99.90;;;;;;5004018;28;20050;-84
2022/04/04 06:14:36;;;;;;;1.50;1.40;;;4.90;99.90;;;;;;5004768;28;20416;-85
2022/04/04 06:17:05;;;;;;;2.83;1.67;;;4.90;99.90;;;;;;5004298;28;20563;-85
2022/04/04 06:19:31;;;;;;;3.60;1.73;;;4.90;99.90;;;;;;5003665;28;20448;-85
2022/04/04 06:21:57;;;;;;;1.33;0.95;;;4.90;99.90;;;;;;4986156;28;20073;-85
2022/04/04 06:24:22;;;;;;;1.38;1.30;;;4.90;99.90;;;;;;5003159;28;20531;-85
2022/04/04 06:26:48;;;;;;;11.90;1.50;;;4.90;99.90;;;;;;4986912;28;20566;-82
2022/04/04 06:29:14;;;;;;;3.03;1.70;;;5.00;99.90;;;;;;5003227;28;20046;-87
2022/04/04 06:31:40;;;;;;;3.08;1.83;;;5.00;99.90;;;;;;5004650;28;20026;-86
2022/04/04 06:34:08;;;;;;;4.90;2.95;;;5.00;99.90;;;;;;5004278;28;20117;-91
2022/04/04 06:36:34;;;;;;;2.13;1.98;;;5.00;99.90;;;;;;5003390;28;20538;-91
2022/04/04 06:38:59;;;;;;;3.92;3.63;;;5.00;99.90;;;;;;4988010;28;20049;-90
2022/04/04 06:41:25;;;;;;;11.80;3.33;;;5.10;99.90;;;;;;5002885;28;20693;-90
2022/04/04 06:43:51;;;;;;;4.43;2.60;;;5.20;99.90;;;;;;4984259;28;20299;-90
2022/04/04 06:46:17;;;;;;;2.78;2.58;;;5.20;99.90;;;;;;4987762;28;20536;-90
2022/04/04 06:48:45;;;;;;;4.60;3.53;;;5.20;99.90;;;;;;4982446;28;20245;-89
2022/04/04 06:51:11;;;;;;;3.28;2.63;;;5.30;99.90;;;;;;4983362;28;20350;-90
2022/04/04 06:53:37;;;;;;;8.00;1.88;;;5.30;99.90;;;;;;4983150;28;20042;-89
2022/04/04 06:56:03;;;;;;;2.13;1.90;;;5.30;99.90;;;;;;4982806;28;20450;-90
2022/04/04 06:58:29;;;;;;;1.92;1.80;;;5.30;99.90;;;;;;4984092;28;20132;-91
2022/04/04 07:00:54;;;;;;;4.95;3.13;;;5.40;99.90;;;;;;4965640;28;20540;-91
2022/04/04 07:03:20;;;;;;;3.77;2.67;;;5.30;99.90;;;;;;4983281;28;20448;-89
2022/04/04 07:05:46;;;;;;;6.25;2.53;;;5.40;99.90;;;;;;4983204;28;20397;-90
2022/04/04 07:08:11;;;;;;;3.43;3.13;;;5.40;99.90;;;;;;4964806;28;20129;-89
2022/04/04 07:10:37;;;;;;;2.95;2.60;;;5.40;99.90;;;;;;4983517;28;20443;-88
2022/04/04 07:13:06;;;;;;;3.90;3.30;;;5.40;99.90;;;;;;4982387;28;20043;-89
2022/04/04 07:15:32;;;;;;;2.47;2.00;;;5.50;99.90;;;;;;4981243;28;20089;-89
2022/04/04 07:17:58;;;;;;;2.30;2.20;;;5.50;99.90;;;;;;4965658;28;20752;-88
2022/04/04 07:20:24;;;;;;;2.58;2.38;;;5.50;99.90;;;;;;4983172;28;20053;-90
2022/04/04 07:22:50;;;;;;;2.58;2.33;;;5.50;99.90;;;;;;4980926;28;20547;-90
2022/04/04 07:25:15;;;;;;;3.70;3.30;;;5.50;99.90;;;;;;4982764;28;20034;-91
2022/04/04 07:27:43;;;;;;;2.40;2.13;;;5.60;99.90;;;;;;4982461;28;20324;-89
2022/04/04 07:30:11;;;;;;;2.60;1.70;;;5.60;99.90;;;;;;4982495;28;20477;-87
2022/04/04 07:32:40;;;;;;;6.17;1.87;;;5.60;99.90;;;;;;4983098;28;20046;-90
2022/04/04 07:35:11;;;;;;;2.28;1.95;;;5.60;99.90;;;;;;4983238;28;20084;-90
2022/04/04 07:37:41;;;;;;;3.53;2.47;;;5.60;99.90;;;;;;4965089;28;20351;-91
2022/04/04 07:40:10;;;;;;;1.52;1.45;;;5.60;99.90;;;;;;4965353;28;20050;-91
2022/04/04 07:42:37;;;;;;;2.40;1.90;;;5.60;99.90;;;;;;4965351;28;20393;-90
2022/04/04 07:45:03;;;;;;;1.42;1.42;;;5.60;99.90;;;;;;4987730;28;20046;-90
2022/04/04 07:47:29;;;;;;;2.83;2.15;;;5.60;99.90;;;;;;5000873;28;20242;-90
2022/04/04 07:49:55;;;;;;;2.03;1.90;;;5.70;99.90;;;;;;5002242;28;20049;-89
2022/04/04 07:52:20;;;;;;;2.65;2.47;;;5.60;99.90;;;;;;5001721;28;20113;-91
2022/04/04 07:54:46;;;;;;;6.68;1.90;;;5.70;99.90;;;;;;5000532;28;20054;-89
2022/04/04 07:57:12;;;;;;;2.83;1.85;;;5.70;99.90;;;;;;5000562;28;20046;-90
2022/04/04 07:59:37;;;;;;;1.73;0.67;;;5.70;99.90;;;;;;5001418;28;20045;-90
2022/04/04 08:02:03;;;;;;;5.20;3.00;;;5.70;99.90;;;;;;5000886;28;20048;-88
2022/04/04 08:04:28;;;;;;;1.37;1.33;;;5.80;99.90;;;;;;5001572;28;20111;-88
2022/04/04 08:06:54;;;;;;;2.03;0.82;;;5.80;99.90;;;;;;5000025;28;20050;-88
2022/04/04 08:09:19;;;;;;;1.95;1.80;;;5.80;99.90;;;;;;5000436;28;20056;-89
2022/04/04 08:11:45;;;;;;;1.35;1.00;;;5.80;99.90;;;;;;5001206;28;20136;-88
2022/04/04 08:14:11;;;;;;;1.63;1.52;;;5.80;99.90;;;;;;5016446;28;20145;-89
2022/04/04 08:16:37;;;;;;;4.55;2.38;;;5.80;99.90;;;;;;5001599;28;20404;-88
2022/04/04 08:19:03;;;;;;;2.13;1.45;;;5.80;99.90;;;;;;5001239;28;20034;-88
2022/04/04 08:21:30;;;;;;;1.13;1.10;;;5.90;99.90;;;;;;5001185;28;20408;-88
2022/04/04 08:23:55;;;;;;;1.23;0.77;;;5.90;99.90;;;;;;5000243;28;20045;-88
2022/04/04 08:26:21;;;;;;;2.72;1.42;;;5.90;99.90;;;;;;4999636;28;20480;-88
2022/04/04 08:28:46;;;;;;;2.40;1.63;;;5.90;99.90;;;;;;5001260;28;20425;-88
2022/04/04 08:31:12;;;;;;;0.82;0.82;;;6.00;99.90;;;;;;5000422;28;20030;-88
2022/04/04 08:33:38;;;;;;;0.95;0.95;;;6.00;99.90;;;;;;5001856;28;20041;-88
2022/04/04 08:36:06;;;;;;;1.10;0.60;;;6.00;99.90;;;;;;5001155;28;20073;-88
2022/04/04 08:38:35;;;;;;;1.83;1.15;;;6.00;99.90;;;;;;4998805;28;20377;-87
2022/04/04 08:41:05;;;;;;;0.52;0.50;;;6.00;99.90;;;;;;5001777;28;20073;-87
2022/04/04 08:43:36;;;;;;;1.58;1.48;;;6.00;99.90;;;;;;5000720;28;20038;-87
2022/04/04 08:46:03;;;;;;;2.70;1.27;;;6.00;99.90;;;;;;5000984;28;20058;-88
2022/04/04 08:48:31;;;;;;;1.10;1.00;;;6.00;99.90;;;;;;5000232;28;20143;-87
2022/04/04 08:50:57;;;;;;;8.82;2.40;;;6.10;99.90;;;;;;5001151;28;20046;-87
2022/04/04 08:53:22;;;;;;;0.73;0.73;;;6.10;99.90;;;;;;4999964;28;20057;-87
2022/04/04 08:55:48;;;;;;;0.77;0.77;;;6.10;99.90;;;;;;5000491;28;20471;-87
2022/04/04 08:58:15;;;;;;;1.10;0.52;;;6.10;99.90;;;;;;4982694;28;20045;-87
2022/04/04 09:00:41;;;;;;;0.95;0.93;;;6.20;99.90;;;;;;4983191;28;20076;-91
2022/04/04 09:03:08;;;;;;;1.13;1.13;;;6.20;99.90;;;;;;5003218;28;20049;-92
2022/04/04 09:05:48;;;;;;;1.17;1.08;;;6.20;99.90;;;;;;4984969;28;20046;-87
2022/04/04 09:08:14;;;;;;;1.70;1.27;;;6.20;99.90;;;;;;5000019;28;20060;-86
2022/04/04 09:10:41;;;;;;;1.73;1.45;;;6.30;99.90;;;;;;5000628;28;20120;-87
2022/04/04 09:13:12;;;;;;;0.40;0.40;;;6.30;99.90;;;;;;5000636;28;20112;-87
2022/04/04 09:15:58;;;;;;;0.93;0.90;;;6.40;99.90;;;;;;5001000;28;20054;-88
2022/04/04 09:18:35;;;;;;;1.20;1.13;;;6.40;99.90;;;;;;5000800;28;20097;-88
2022/04/04 09:21:02;;;;;;;1.17;0.60;;;6.40;99.90;;;;;;5000727;28;20041;-89
2022/04/04 09:23:33;;;;;;;2.90;1.08;;;6.40;99.90;;;;;;4981963;28;20133;-89
2022/04/04 09:26:00;;;;;;;0.88;0.88;;;6.40;99.90;;;;;;5000507;28;20049;-88
2022/04/04 09:28:26;;;;;;;1.52;1.00;;;6.40;99.90;;;;;;5000181;28;20298;-89
2022/04/04 09:31:09;;;;;;;0.75;0.70;;;6.50;99.90;;;;;;5000981;28;20365;-88
2022/04/04 09:33:35;;;;;;;1.25;1.25;;;6.50;99.90;;;;;;4983960;28;20050;-89
2022/04/04 09:36:01;;;;;;;5.38;1.63;;;6.50;99.90;;;;;;5001411;28;20046;-88
2022/04/04 09:38:26;;;;;;;1.08;1.08;;;6.50;99.90;;;;;;4999232;28;20048;-88
2022/04/04 09:40:52;;;;;;;0.70;0.70;;;6.50;99.90;;;;;;5000541;28;20161;-88
2022/04/04 09:43:18;;;;;;;1.30;1.20;;;6.60;99.90;;;;;;5000422;28;20112;-88
2022/04/04 09:45:46;;;;;;;1.77;1.38;;;6.50;99.90;;;;;;4990332;28;20057;-88
2022/04/04 09:48:12;;;;;;;1.83;1.20;;;6.60;99.90;;;;;;4981307;28;20038;-89
2022/04/04 09:50:46;;;;;;;1.73;1.25;;;6.60;99.90;;;;;;4986005;28;20439;-88
2022/04/04 09:53:22;;;;;;;0.88;0.68;;;6.60;99.90;;;;;;4998794;28;20038;-88
2022/04/04 09:55:55;;;;;;;2.83;1.27;;;6.60;99.90;;;;;;5000668;28;20060;-88
2022/04/04 09:58:30;;;;;;;1.83;1.52;;;6.70;99.90;;;;;;5000518;28;20042;-88
2022/04/04 10:00:58;;;;;;;2.10;1.35;;;6.60;99.90;;;;;;5001388;28;20423;-88
2022/04/04 10:03:24;;;;;;;1.95;0.65;;;6.60;99.90;;;;;;4999637;28;20263;-88
2022/04/04 10:06:01;;;;;;;3.67;1.80;;;6.70;99.90;;;;;;5000636;28;20037;-88
2022/04/04 10:08:27;;;;;;;2.13;1.17;;;6.70;99.90;;;;;;4981522;28;20050;-89
2022/04/04 10:10:56;;;;;;;0.95;0.95;;;6.70;99.90;;;;;;5004117;28;20049;-89
2022/04/04 10:13:23;;;;;;;1.30;1.20;;;6.70;99.90;;;;;;4985823;28;20493;-88
2022/04/04 10:15:51;;;;;;;1.85;0.75;;;6.80;99.90;;;;;;5003590;28;20369;-88
2022/04/04 10:18:18;;;;;;;5.60;1.35;;;6.80;99.90;;;;;;5003303;28;20045;-87
2022/04/04 10:20:53;;;;;;;12.23;1.58;;;6.80;99.90;;;;;;5003914;28;20084;-87
2022/04/04 10:23:23;;;;;;;1.30;0.70;;;6.80;99.90;;;;;;4986596;28;20042;-87
2022/04/04 10:25:50;;;;;;;0.38;0.38;;;6.80;99.90;;;;;;5004084;28;20052;-88
2022/04/04 10:28:30;;;;;;;3.70;1.38;;;6.90;99.90;;;;;;5000984;28;20619;-80
2022/04/04 10:31:00;;;;;;;0.50;0.47;;;6.90;99.90;;;;;;4996692;28;20128;-81
2022/04/04 10:33:27;;;;;;;1.77;1.65;;;6.90;99.90;;;;;;5001906;28;20555;-80
2022/04/04 10:36:04;;;;;;;1.05;0.60;;;6.90;99.90;;;;;;5003999;28;20042;-80
2022/04/04 10:38:50;;;;;;;0.57;0.57;;;6.90;99.90;;;;;;4999769;28;20254;-83
2022/04/04 10:41:22;;;;;;;0.55;0.55;;;6.90;99.90;;;;;;5003063;28;20049;-85
2022/04/04 10:43:50;;;;;;;1.05;0.95;;;6.90;99.90;;;;;;5002325;28;20042;-84
2022/04/04 10:46:18;;;;;;;3.53;0.75;;;7.00;99.90;;;;;;5001964;28;20589;-82
2022/04/04 10:48:49;;;;;;;2.92;1.20;;;7.00;99.90;;;;;;5003015;28;20045;-82
2022/04/04 10:51:19;;;;;;;0.30;0.30;;;7.00;99.90;;;;;;5001399;28;20453;-83
2022/04/04 10:54:06;;;;;;;1.83;0.95;;;7.00;99.90;;;;;;5001770;28;20046;-85
2022/04/04 10:56:36;;;;;;;0.20;0.20;;;7.00;99.90;;;;;;4982711;28;20408;-87
2022/04/04 10:59:14;;;;;;;0.45;0.45;;;7.10;99.90;;;;;;4985305;28;20459;-84
2022/04/04 11:01:42;;;;;;;0.32;0.32;;;7.10;99.90;;;;;;5003463;28;20108;-88
2022/04/04 11:04:26;;;;;;;1.08;0.98;;;7.10;99.90;;;;;;4984980;28;20042;-86
2022/04/04 11:09:55;;;;;;;0.75;0.75;;;7.20;99.90;;;;;;5002104;28;20061;-81
2022/04/04 11:12:24;;;;;;;0.40;0.40;;;7.20;99.90;;;;;;5002310;28;20054;-81
2022/04/04 11:15:05;;;;;;;0.60;0.60;;;7.20;99.90;;;;;;5002278;28;20421;-83
2022/04/04 11:17:32;;;;;;;1.40;1.30;;;7.30;99.90;;;;;;5001882;28;20069;-84
2022/04/04 11:20:34;;;;;;;0.20;0.20;;;7.30;99.90;;;;;;5000032;28;20371;-80
2022/04/04 11:23:03;;;;;;;0.70;0.70;;;7.40;99.90;;;;;;5001525;28;20046;-79
2022/04/04 11:25:34;;;;;;;0.32;0.32;;;7.40;99.90;;;;;;5001324;28;20037;-79
2022/04/04 11:28:01;;;;;;;0.35;0.35;;;7.40;99.90;;;;;;4984965;28;20049;-82
2022/04/04 11:30:27;;;;;;;0.32;0.32;;;7.40;99.90;;;;;;5002527;28;20037;-83
2022/04/04 11:32:54;;;;;;;0.47;0.40;;;7.40;99.90;;;;;;5003187;28;20045;-83
2022/04/04 11:35:48;;;;;;;2.35;1.48;;;7.50;99.90;;;;;;4984373;28;20042;-83
2022/04/04 11:38:17;;;;;;;0.30;0.30;;;7.50;99.90;;;;;;4996731;28;20574;-81
2022/04/04 11:40:55;;;;;;;1.17;0.93;;;7.50;99.90;;;;;;5001584;28;20556;-80
2022/04/04 11:43:26;;;;;;;1.00;0.77;;;7.50;99.90;;;;;;4982316;28;20130;-85
2022/04/04 11:45:55;;;;;;;0.50;0.50;;;7.50;99.90;;;;;;4993087;28;20072;-81
2022/04/04 11:48:24;;;;;;;1.08;1.08;;;7.60;99.90;;;;;;5001072;28;20069;-79
2022/04/04 11:50:56;;;;;;;1.17;1.13;;;7.60;99.90;;;;;;5001462;28;20042;-81
2022/04/04 11:53:25;;;;;;;0.70;0.70;;;7.60;99.90;;;;;;4982740;28;20113;-81
2022/04/04 11:55:52;;;;;;;1.02;1.02;;;7.60;99.90;;;;;;4998686;28;20120;-81
2022/04/04 11:58:20;;;;;;;4.60;2.30;;;7.60;99.90;;;;;;4999350;28;20055;-82
2022/04/04 12:00:55;;;;;;;0.63;0.63;;;7.70;99.90;;;;;;5011102;28;20056;-83
2022/04/04 12:03:23;;;;;;;0.80;0.80;;;7.70;99.90;;;;;;5002124;28;20496;-79
2022/04/04 12:05:49;;;;;;;2.10;1.85;;;7.70;99.90;;;;;;5000339;28;20077;-77
2022/04/04 12:08:17;;;;;;;3.10;1.83;;;7.70;99.90;;;;;;4999707;28;20046;-77
2022/04/04 12:10:46;;;;;;;1.58;1.48;;;7.80;99.90;;;;;;5005156;28;20515;-78
2022/04/04 12:13:21;;;;;;;0.90;0.90;;;7.80;99.90;;;;;;5005977;28;20117;-80
2022/04/04 12:15:48;;;;;;;1.45;1.05;;;7.80;99.90;;;;;;4997826;28;20150;-80
2022/04/04 12:18:23;;;;;;;1.05;1.00;;;7.80;99.90;;;;;;5000841;28;20350;-79
2022/04/04 12:20:50;;;;;;;3.90;1.42;;;7.90;99.90;;;;;;5001142;28;20123;-82
2022/04/04 12:26:04;;;;;;;1.08;1.08;;;7.90;99.90;;;;;;4997874;28;20084;-82
2022/04/04 12:28:33;;;;;;;1.40;1.30;;;8.00;99.90;;;;;;4989237;28;20054;-82
2022/04/04 12:31:17;;;;;;;1.58;1.48;;;8.00;99.90;;;;;;5001095;28;20328;-82
2022/04/04 12:33:43;;;;;;;10.88;1.88;;;8.00;99.90;;;;;;4980249;28;20038;-81
2022/04/04 12:36:09;;;;;;;1.90;1.80;;;8.10;99.90;;;;;;4986537;28;20254;-81
2022/04/04 12:38:39;;;;;;;4.32;1.88;;;8.10;99.90;;;;;;4995597;28;20072;-82
2022/04/04 12:41:15;;;;;;;5.55;3.47;;;8.10;99.90;;;;;;4989343;28;20042;-81
2022/04/04 12:43:43;;;;;;;1.77;1.65;;;8.20;99.90;;;;;;5001736;28;20073;-79
2022/04/04 12:46:41;;;;;;;3.92;1.70;;;8.20;99.90;;;;;;4992030;28;20030;-81
2022/04/04 12:49:12;;;;;;;2.47;1.67;;;8.30;99.90;;;;;;4939703;28;20104;-82
2022/04/04 12:51:39;;;;;;;4.38;2.00;;;8.30;99.90;;;;;;5007780;28;20512;-82
2022/04/04 12:54:05;;;;;;;3.13;1.83;;;8.30;99.90;;;;;;5000817;28;20054;-81
2022/04/04 12:56:47;;;;;;;5.97;1.70;;;8.40;99.90;;;;;;5000150;28;20065;-81
2022/04/04 12:59:12;;;;;;;3.60;2.85;;;8.40;99.90;;;;;;5000283;28;20552;-82
2022/04/04 13:01:39;;;;;;;3.83;1.80;;;8.40;99.90;;;;;;4997563;28;20130;-82
2022/04/04 13:04:21;;;;;;;2.35;2.15;;;8.40;99.90;;;;;;5000817;28;20088;-81
2022/04/04 13:06:48;;;;;;;1.60;1.50;;;8.40;99.90;;;;;;4995201;28;20045;-82
2022/04/04 13:09:23;;;;;;;1.67;1.58;;;8.40;99.90;;;;;;4999677;28;20037;-81
2022/04/04 13:11:49;;;;;;;1.63;0.93;;;8.40;99.90;;;;;;4999055;28;20074;-80
2022/04/04 13:14:15;;;;;;;2.40;1.42;;;8.50;99.90;;;;;;4987630;28;20133;-83